createdAt,value
2018-10-19T00:00:24.721Z,81.23
2018-10-19T00:03:00.857Z,80.67
2018-10-19T00:05:30.800Z,81.45
2018-10-19T00:08:00.730Z,81.35
2018-10-19T00:10:41.916Z,81.22
2018-10-19T00:13:33.000Z,80.86
2018-10-19T00:16:02.949Z,81.31
2018-10-19T00:18:31.944Z,80.78
2018-10-19T00:21:06.477Z,81.49
2018-10-19T00:23:41.800Z,80.90
2018-10-19T00:26:14.459Z,81.38
2018-10-19T00:28:43.485Z,80.72
2018-10-19T00:31:12.581Z,81.78
2018-10-19T00:33:42.602Z,81.69
2018-10-19T00:36:11.555Z,81.63
2018-10-19T00:38:47.857Z,80.58
2018-10-19T00:41:20.806Z,81.62
2018-10-19T00:43:52.894Z,80.70
2018-10-19T00:46:41.629Z,81.52
2018-10-19T00:49:15.524Z,80.77
2018-10-19T00:51:44.422Z,81.24
2018-10-19T00:54:13.426Z,81.17
2018-10-19T00:56:44.375Z,80.81
2018-10-19T00:59:14.439Z,81.75
2018-10-19T01:01:43.473Z,81.90
2018-10-19T01:04:12.453Z,81.79
2018-10-19T01:06:41.376Z,81.35
2018-10-19T01:09:11.312Z,82.43
2018-10-19T01:11:40.178Z,83.12
2018-10-19T01:14:13.862Z,83.13
2018-10-19T01:16:43.845Z,82.85
2018-10-19T01:19:15.852Z,82.42
2018-10-19T01:21:45.812Z,83.57
2018-10-19T01:24:17.810Z,83.15
2018-10-19T01:26:47.760Z,82.47
2018-10-19T01:29:17.689Z,82.22
2018-10-19T01:31:50.788Z,82.67
2018-10-19T01:34:25.627Z,83.27
2018-10-19T01:37:02.598Z,83.33
2018-10-19T01:39:33.303Z,82.96
2018-10-19T01:42:02.527Z,82.43
2018-10-19T01:44:32.606Z,82.78
2018-10-19T01:47:24.625Z,82.59
2018-10-19T01:49:58.312Z,83.08
2018-10-19T01:52:29.374Z,83.36
2018-10-19T01:55:17.205Z,83.51
2018-10-19T01:57:50.000Z,83.71
2018-10-19T02:00:30.824Z,82.90
2018-10-19T02:03:04.016Z,83.73
2018-10-19T02:05:39.017Z,83.53
2018-10-19T02:08:09.033Z,83.87
2018-10-19T02:10:41.161Z,83.46
2018-10-19T02:13:10.997Z,83.49
2018-10-19T02:15:46.750Z,83.84
2018-10-19T02:18:20.359Z,83.90
2018-10-19T02:20:51.291Z,83.87
2018-10-19T02:23:31.052Z,83.83
2018-10-19T02:26:17.378Z,83.93
2018-10-19T02:28:48.375Z,83.66
2018-10-19T02:31:18.278Z,83.84
2018-10-19T02:36:41.409Z,84.89
2018-10-19T02:39:10.412Z,83.16
2018-10-19T02:41:43.632Z,85.30
2018-10-19T02:44:18.564Z,84.55
2018-10-19T02:46:48.595Z,84.06
2018-10-19T02:49:17.584Z,84.44
2018-10-19T02:51:48.570Z,84.82
2018-10-19T02:54:25.748Z,84.06
2018-10-19T02:57:05.080Z,84.54
2018-10-19T03:02:28.555Z,85.75
2018-10-19T03:05:00.754Z,85.06
2018-10-19T03:07:43.302Z,86.27
2018-10-19T03:10:13.226Z,84.89
2018-10-19T03:12:43.253Z,84.76
2018-10-19T03:15:15.847Z,84.16
2018-10-19T03:17:45.788Z,85.07
2018-10-19T03:20:20.476Z,84.95
2018-10-19T03:22:55.324Z,84.97
2018-10-19T03:25:25.264Z,85.00
2018-10-19T03:27:58.006Z,84.94
2018-10-19T03:30:29.012Z,84.37
2018-10-19T03:33:02.851Z,85.14
2018-10-19T03:35:31.779Z,84.63
2018-10-19T03:38:01.804Z,85.27
2018-10-19T03:40:31.783Z,83.98
2018-10-19T03:43:01.732Z,85.23
2018-10-19T03:45:35.892Z,84.80
2018-10-19T03:48:17.525Z,85.15
2018-10-19T03:50:48.484Z,84.20
2018-10-19T03:53:19.584Z,84.04
2018-10-19T03:55:48.455Z,84.66
2018-10-19T03:58:23.944Z,84.18
2018-10-19T04:01:03.692Z,83.39
2018-10-19T04:03:43.348Z,84.27
2018-10-19T04:09:08.904Z,84.51
2018-10-19T04:11:41.595Z,83.17
2018-10-19T04:14:12.708Z,83.60
2018-10-19T04:16:41.648Z,83.94
2018-10-19T04:19:11.632Z,83.54
2018-10-19T04:21:45.081Z,83.52
2018-10-19T04:24:17.005Z,83.64
2018-10-19T04:26:49.306Z,83.57
2018-10-19T04:29:18.393Z,83.24
2018-10-19T04:31:48.326Z,83.33
2018-10-19T04:34:18.390Z,84.62
2018-10-19T04:36:56.584Z,84.57
2018-10-19T04:39:28.993Z,83.04
2018-10-19T04:42:04.047Z,83.37
2018-10-19T04:44:36.106Z,84.13
2018-10-19T04:47:16.943Z,83.58
2018-10-19T04:49:47.965Z,83.93
2018-10-19T04:52:24.518Z,84.09
2018-10-19T04:54:53.932Z,83.50
2018-10-19T04:57:29.343Z,83.40
2018-10-19T04:59:59.278Z,83.00
2018-10-19T05:02:34.278Z,84.50
2018-10-19T05:05:04.504Z,83.63
2018-10-19T05:07:37.785Z,83.33
2018-10-19T05:10:17.957Z,83.81
2018-10-19T05:12:47.886Z,83.71
2018-10-19T05:15:24.589Z,83.63
2018-10-19T05:18:03.584Z,83.05
2018-10-19T05:20:36.053Z,83.61
2018-10-19T05:23:07.265Z,83.87
2018-10-19T05:25:36.167Z,83.17
2018-10-19T05:28:08.303Z,83.17
2018-10-19T05:30:37.252Z,83.14
2018-10-19T05:33:08.163Z,83.65
2018-10-19T05:35:54.275Z,83.48
2018-10-19T05:38:23.339Z,83.67
2018-10-19T05:41:03.720Z,83.18
2018-10-19T05:43:34.651Z,83.24
2018-10-19T05:46:08.210Z,83.03
2018-10-19T05:48:40.613Z,83.24
2018-10-19T05:51:15.476Z,83.32
2018-10-19T05:53:45.405Z,83.97
2018-10-19T05:56:26.841Z,82.74
2018-10-19T05:58:56.294Z,83.68
2018-10-19T06:01:25.677Z,82.99
2018-10-19T06:04:02.974Z,83.88
2018-10-19T06:06:37.490Z,83.48
2018-10-19T06:09:15.201Z,83.23
2018-10-19T06:11:45.336Z,83.10
2018-10-19T06:14:15.377Z,84.09
2018-10-19T06:16:44.233Z,83.10
2018-10-19T06:19:13.210Z,83.19
2018-10-19T06:21:43.797Z,83.61
2018-10-19T06:24:16.582Z,83.87
2018-10-19T06:26:47.928Z,84.80
2018-10-19T06:29:19.223Z,83.75
2018-10-19T06:31:51.992Z,84.59
2018-10-19T06:34:28.336Z,84.37
2018-10-19T06:36:57.278Z,83.32
2018-10-19T06:39:26.295Z,83.72
2018-10-19T06:41:55.256Z,85.00
2018-10-19T06:44:25.174Z,83.65
2018-10-19T06:46:54.176Z,83.54
2018-10-19T06:49:23.187Z,83.83
2018-10-19T06:52:15.976Z,83.64
2018-10-19T06:54:49.816Z,83.71
2018-10-19T06:57:35.686Z,83.46
2018-10-19T07:00:05.238Z,83.62
2018-10-19T07:02:35.281Z,83.64
2018-10-19T07:05:04.622Z,82.96
2018-10-19T07:07:34.745Z,83.65
2018-10-19T07:10:05.016Z,83.67
2018-10-19T07:12:43.513Z,83.65
2018-10-19T07:15:22.541Z,82.95
2018-10-19T07:17:55.009Z,83.15
2018-10-19T07:20:25.950Z,83.39
2018-10-19T07:22:58.113Z,84.29
2018-10-19T07:25:34.723Z,83.17
2018-10-19T07:28:07.432Z,83.46
2018-10-19T07:30:37.384Z,82.62
2018-10-19T07:33:08.301Z,83.07
2018-10-19T07:35:38.424Z,82.28
2018-10-19T07:38:24.939Z,82.47
2018-10-19T07:41:12.885Z,82.62
2018-10-19T07:43:41.770Z,82.65
2018-10-19T07:46:10.741Z,83.75
2018-10-19T07:48:42.872Z,84.75
2018-10-19T07:51:15.774Z,84.21
2018-10-19T07:53:44.678Z,83.72
2018-10-19T07:59:08.664Z,84.41
2018-10-19T08:01:42.293Z,84.58
2018-10-19T08:04:12.285Z,84.46
2018-10-19T08:06:41.189Z,84.48
2018-10-19T08:09:12.555Z,84.34
2018-10-19T08:11:45.641Z,83.45
2018-10-19T08:14:29.359Z,83.73
2018-10-19T08:16:59.700Z,83.70
2018-10-19T08:19:30.483Z,83.44
2018-10-19T08:22:12.314Z,82.66
2018-10-19T08:24:49.472Z,83.61
2018-10-19T08:27:26.986Z,83.17
2018-10-19T08:29:57.608Z,83.41
2018-10-19T08:32:27.762Z,83.61
2018-10-19T08:35:02.076Z,82.71
2018-10-19T08:37:33.001Z,83.00
2018-10-19T08:40:15.722Z,82.64
2018-10-19T08:42:44.711Z,82.99
2018-10-19T08:45:14.751Z,82.44
2018-10-19T08:47:48.526Z,82.41
2018-10-19T08:50:18.503Z,82.24
2018-10-19T08:52:47.581Z,82.40
2018-10-19T08:55:19.886Z,80.73
2018-10-19T08:57:51.997Z,81.59
2018-10-19T09:00:25.500Z,80.72
2018-10-19T09:02:56.491Z,81.27
2018-10-19T09:05:26.325Z,81.10
2018-10-19T09:08:01.529Z,80.39
2018-10-19T09:10:30.962Z,80.35
2018-10-19T09:13:05.827Z,80.99
2018-10-19T09:15:34.803Z,81.52
2018-10-19T09:18:04.881Z,81.35
2018-10-19T09:20:37.268Z,80.34
2018-10-19T09:23:15.880Z,80.48
2018-10-19T09:25:48.440Z,80.77
2018-10-19T09:28:19.436Z,80.14
2018-10-19T09:30:48.370Z,80.79
2018-10-19T09:33:18.504Z,80.55
2018-10-19T09:35:48.425Z,79.93
2018-10-19T09:38:18.311Z,80.08
2018-10-19T09:40:47.345Z,80.08
2018-10-19T09:43:16.323Z,80.15
2018-10-19T09:45:45.306Z,79.91
2018-10-19T09:48:14.244Z,79.50
2018-10-19T09:50:43.429Z,78.67
2018-10-19T09:53:12.563Z,78.55
2018-10-19T09:55:41.760Z,79.27
2018-10-19T09:58:11.068Z,78.33
2018-10-19T10:00:46.476Z,78.53
2018-10-19T10:03:19.137Z,77.95
2018-10-19T10:05:52.498Z,78.04
2018-10-19T10:08:21.868Z,77.92
2018-10-19T10:10:50.774Z,77.58
2018-10-19T10:13:19.677Z,76.91
2018-10-19T10:15:48.618Z,77.07
2018-10-19T10:18:17.517Z,77.16
2018-10-19T10:20:46.418Z,77.03
2018-10-19T10:23:21.593Z,76.58
2018-10-19T10:25:50.507Z,76.86
2018-10-19T10:28:19.401Z,76.73
2018-10-19T10:30:48.266Z,77.25
2018-10-19T10:33:17.161Z,77.26
2018-10-19T10:35:47.136Z,76.03
2018-10-19T10:38:16.096Z,76.40
2018-10-19T10:40:46.027Z,75.87
2018-10-19T10:43:14.976Z,75.80
2018-10-19T10:45:55.922Z,76.50
2018-10-19T10:48:24.784Z,76.38
2018-10-19T10:50:54.089Z,76.21
2018-10-19T10:53:23.020Z,76.43
2018-10-19T10:55:52.062Z,76.98
2018-10-19T10:58:39.874Z,76.87
2018-10-19T11:01:08.794Z,76.29
2018-10-19T11:03:39.746Z,76.54
2018-10-19T11:06:08.668Z,75.47
2018-10-19T11:08:37.635Z,76.11
2018-10-19T11:11:09.144Z,76.15
2018-10-19T11:13:50.945Z,75.30
2018-10-19T11:16:19.804Z,75.81
2018-10-19T11:18:48.745Z,75.40
2018-10-19T11:21:17.657Z,75.71
2018-10-19T11:23:46.563Z,74.76
2018-10-19T11:26:17.494Z,75.87
2018-10-19T11:28:46.443Z,75.67
2018-10-19T11:31:15.484Z,75.45
2018-10-19T11:33:44.522Z,74.62
2018-10-19T11:36:13.398Z,74.40
2018-10-19T11:38:42.262Z,74.54
2018-10-19T11:41:11.197Z,73.48
2018-10-19T11:43:40.116Z,73.70
2018-10-19T11:46:16.069Z,73.98
2018-10-19T11:48:44.924Z,73.97
2018-10-19T11:51:15.861Z,72.85
2018-10-19T11:53:44.752Z,73.16
2018-10-19T11:56:18.898Z,72.61
2018-10-19T11:58:47.820Z,73.49
2018-10-19T12:01:16.789Z,73.22
2018-10-19T12:03:45.796Z,72.50
2018-10-19T12:06:16.630Z,72.52
2018-10-19T12:08:45.605Z,72.87
2018-10-19T12:11:14.658Z,72.41
2018-10-19T12:13:48.374Z,71.15
2018-10-19T12:16:21.868Z,70.54
2018-10-19T12:18:50.972Z,70.95
2018-10-19T12:24:29.023Z,69.62
2018-10-19T12:26:57.922Z,69.23
2018-10-19T12:32:25.280Z,68.46
2018-10-19T12:34:55.244Z,68.62
2018-10-19T12:37:24.238Z,69.12
2018-10-19T12:39:53.163Z,68.33
2018-10-19T12:42:28.272Z,68.15
2018-10-19T12:44:57.172Z,68.34
2018-10-19T12:47:40.495Z,68.59
2018-10-19T12:50:27.965Z,69.04
2018-10-19T12:52:56.944Z,67.26
2018-10-19T12:55:29.010Z,67.56
2018-10-19T12:57:57.945Z,67.64
2018-10-19T13:00:28.049Z,67.75
2018-10-19T13:02:57.032Z,68.27
2018-10-19T13:05:25.967Z,67.82
2018-10-19T13:08:00.977Z,67.92
2018-10-19T13:10:29.949Z,68.37
2018-10-19T13:12:59.170Z,68.14
2018-10-19T13:18:25.062Z,67.46
2018-10-19T13:20:56.045Z,67.68
2018-10-19T13:23:36.960Z,67.50
2018-10-19T13:26:06.954Z,67.20
2018-10-19T13:28:45.813Z,67.50
2018-10-19T13:31:15.952Z,67.79
2018-10-19T13:33:51.978Z,68.58
2018-10-19T13:36:21.963Z,68.52
2018-10-19T13:38:52.919Z,68.39
2018-10-19T13:41:40.001Z,68.01
2018-10-19T13:44:08.928Z,67.60
2018-10-19T13:46:37.824Z,68.19
2018-10-19T13:49:07.110Z,67.31
2018-10-19T13:51:37.147Z,67.88
2018-10-19T13:54:12.505Z,67.82
2018-10-19T13:56:58.105Z,66.88
2018-10-19T14:02:20.835Z,67.54
2018-10-19T14:04:50.048Z,67.16
2018-10-19T14:07:28.867Z,67.12
2018-10-19T14:10:16.344Z,66.75
2018-10-19T14:12:45.230Z,67.20
2018-10-19T14:15:20.055Z,67.22
2018-10-19T14:17:52.305Z,67.11
2018-10-19T14:20:30.843Z,67.16
2018-10-19T14:22:59.853Z,66.92
2018-10-19T14:25:28.774Z,67.46
2018-10-19T14:27:57.813Z,67.30
2018-10-19T14:30:31.478Z,67.73
2018-10-19T14:33:02.574Z,67.66
2018-10-19T14:35:32.543Z,68.41
2018-10-19T14:38:02.532Z,66.94
2018-10-19T14:40:31.547Z,66.98
2018-10-19T14:43:00.547Z,67.14
2018-10-19T14:45:40.140Z,66.59
2018-10-19T14:48:11.085Z,67.63
2018-10-19T14:50:40.014Z,67.67
2018-10-19T14:53:10.939Z,67.55
2018-10-19T14:55:40.173Z,66.86
2018-10-19T14:58:14.633Z,67.27
2018-10-19T15:00:44.848Z,67.78
2018-10-19T15:03:13.890Z,67.33
2018-10-19T15:05:43.775Z,67.26
2018-10-19T15:08:12.868Z,67.73
2018-10-19T15:10:45.948Z,67.47
2018-10-19T15:13:14.676Z,67.89
2018-10-19T15:15:47.821Z,67.74
2018-10-19T15:18:22.724Z,67.15
2018-10-19T15:20:55.563Z,67.49
2018-10-19T15:23:28.428Z,67.40
2018-10-19T15:25:58.354Z,68.64
2018-10-19T15:28:28.311Z,68.36
2018-10-19T15:30:59.384Z,68.32
2018-10-19T15:33:32.756Z,69.47
2018-10-19T15:36:03.679Z,69.39
2018-10-19T15:38:33.568Z,69.27
2018-10-19T15:41:03.585Z,69.60
2018-10-19T15:43:33.566Z,69.56
2018-10-19T15:46:02.516Z,70.00
2018-10-19T15:48:33.432Z,70.44
2018-10-19T15:51:07.097Z,70.23
2018-10-19T15:53:45.925Z,70.41
2018-10-19T15:56:28.093Z,70.42
2018-10-19T15:58:58.364Z,70.34
2018-10-19T16:01:27.581Z,70.13
2018-10-19T16:03:57.943Z,70.07
2018-10-19T16:06:26.985Z,70.15
2018-10-19T16:08:56.220Z,70.53
2018-10-19T16:11:28.753Z,70.26
2018-10-19T16:14:04.994Z,70.23
2018-10-19T16:16:44.210Z,70.74
2018-10-19T16:19:13.337Z,71.42
2018-10-19T16:21:42.457Z,71.14
2018-10-19T16:24:11.547Z,71.00
2018-10-19T16:26:43.306Z,70.92
2018-10-19T16:29:12.272Z,71.26
2018-10-19T16:31:41.239Z,71.66
2018-10-19T16:34:13.915Z,71.71
2018-10-19T16:36:51.192Z,71.55
2018-10-19T16:39:21.083Z,72.30
2018-10-19T16:41:50.058Z,72.48
2018-10-19T16:44:24.882Z,72.45
2018-10-19T16:47:02.601Z,72.98
2018-10-19T16:49:44.473Z,74.25
2018-10-19T16:52:14.952Z,74.32
2018-10-19T16:54:48.173Z,73.64
2018-10-19T16:57:22.744Z,75.38
2018-10-19T16:59:52.306Z,73.71
2018-10-19T17:02:28.244Z,74.41
2018-10-19T17:05:01.998Z,75.06
2018-10-19T17:07:31.651Z,74.93
2018-10-19T17:10:06.730Z,74.81
2018-10-19T17:12:39.506Z,75.52
2018-10-19T17:15:08.524Z,75.86
2018-10-19T17:17:37.589Z,75.74
2018-10-19T17:20:16.358Z,75.70
2018-10-19T17:22:45.260Z,75.47
2018-10-19T17:25:19.055Z,76.07
2018-10-19T17:27:55.036Z,76.76
2018-10-19T17:30:25.964Z,76.42
2018-10-19T17:32:55.028Z,76.93
2018-10-19T17:35:34.102Z,77.19
2018-10-19T17:38:03.134Z,77.32
2018-10-19T17:40:32.073Z,77.46
2018-10-19T17:43:04.860Z,77.79
2018-10-19T17:45:37.467Z,77.32
2018-10-19T17:48:14.051Z,77.80
2018-10-19T17:53:38.802Z,77.77
2018-10-19T17:56:12.278Z,77.70
2018-10-19T17:58:45.941Z,77.81
2018-10-19T18:01:34.602Z,78.76
2018-10-19T18:04:08.413Z,78.17
2018-10-19T18:06:37.440Z,78.58
2018-10-19T18:09:09.119Z,78.73
2018-10-19T18:11:44.115Z,77.99
2018-10-19T18:14:27.164Z,79.04
2018-10-19T18:17:02.469Z,78.70
2018-10-19T18:19:33.870Z,79.03
2018-10-19T18:22:07.028Z,79.71
2018-10-19T18:24:54.888Z,79.35
2018-10-19T18:27:25.235Z,79.07
2018-10-19T18:29:54.361Z,79.34
2018-10-19T18:32:34.572Z,78.98
2018-10-19T18:35:03.664Z,79.26
2018-10-19T18:37:43.465Z,79.55
2018-10-19T18:40:24.572Z,78.54
2018-10-19T18:42:53.583Z,79.90
2018-10-19T18:45:28.404Z,78.87
2018-10-19T18:47:57.474Z,79.27
2018-10-19T18:50:31.637Z,79.58
2018-10-19T18:55:57.984Z,78.89
2018-10-19T18:58:37.482Z,78.58
2018-10-19T19:01:08.480Z,78.95
2018-10-19T19:03:37.454Z,78.28
2018-10-19T19:06:07.351Z,78.74
2018-10-19T19:08:43.613Z,78.17
2018-10-19T19:11:14.689Z,77.42
2018-10-19T19:16:53.390Z,76.75
2018-10-19T19:19:41.134Z,77.32
2018-10-19T19:22:18.249Z,77.61
2018-10-19T19:24:58.617Z,77.67
2018-10-19T19:27:27.785Z,77.49
2018-10-19T19:30:15.147Z,76.78
2018-10-19T19:33:04.949Z,76.81
2018-10-19T19:35:46.628Z,76.88
2018-10-19T19:38:18.675Z,77.55
2018-10-19T19:41:05.534Z,76.91
2018-10-19T19:43:39.719Z,76.47
2018-10-19T19:46:09.899Z,76.83
2018-10-19T19:48:49.217Z,77.01
2018-10-19T19:51:28.063Z,77.22
2018-10-19T19:53:56.978Z,76.66
2018-10-19T19:56:29.636Z,76.98
2018-10-19T19:58:58.657Z,76.59
2018-10-19T20:01:38.669Z,77.15
2018-10-19T20:04:26.158Z,77.70
2018-10-19T20:07:03.344Z,76.67
2018-10-19T20:09:32.263Z,76.83
2018-10-19T20:12:01.234Z,76.78
2018-10-19T20:14:43.320Z,77.08
2018-10-19T20:17:23.525Z,77.63
2018-10-19T20:19:53.470Z,76.42
2018-10-19T20:22:35.074Z,76.12
2018-10-19T20:25:10.968Z,76.64
2018-10-19T20:30:37.536Z,76.39
2018-10-19T20:33:07.494Z,76.79
2018-10-19T20:35:38.384Z,77.36
2018-10-19T20:38:07.338Z,77.94
2018-10-19T20:40:40.072Z,77.46
2018-10-19T20:43:11.057Z,77.34
2018-10-19T20:45:43.056Z,77.54
2018-10-19T20:48:13.996Z,76.54
2018-10-19T20:50:43.066Z,78.15
2018-10-19T20:53:12.017Z,77.47
2018-10-19T20:55:41.919Z,78.02
2018-10-19T20:58:10.975Z,78.03
2018-10-19T21:00:50.346Z,78.04
2018-10-19T21:03:21.306Z,78.02
2018-10-19T21:05:51.314Z,77.40
2018-10-19T21:08:21.276Z,78.33
2018-10-19T21:10:53.448Z,77.66
2018-10-19T21:13:39.225Z,77.55
2018-10-19T21:16:25.933Z,78.48
2018-10-19T21:19:06.843Z,78.53
2018-10-19T21:21:52.824Z,77.98
2018-10-19T21:24:23.818Z,79.12
2018-10-19T21:26:52.706Z,78.92
2018-10-19T21:29:21.590Z,79.48
2018-10-19T21:31:52.534Z,79.50
2018-10-19T21:34:21.417Z,79.38
2018-10-19T21:36:58.523Z,78.78
2018-10-19T21:39:27.410Z,79.13
2018-10-19T21:42:02.404Z,79.25
2018-10-19T21:44:35.080Z,78.92
2018-10-19T21:47:04.034Z,79.67
2018-10-19T21:49:32.945Z,78.87
2018-10-19T21:52:01.836Z,79.14
2018-10-19T21:54:30.741Z,79.31
2018-10-19T21:56:59.615Z,78.85
2018-10-19T21:59:41.004Z,79.87
2018-10-19T22:02:12.094Z,80.40
2018-10-19T22:04:45.880Z,79.09
2018-10-19T22:07:16.776Z,79.58
2018-10-19T22:09:49.690Z,79.30
2018-10-19T22:12:22.458Z,79.89
2018-10-19T22:14:52.502Z,79.48
2018-10-19T22:17:22.386Z,80.05
2018-10-19T22:20:15.031Z,80.16
2018-10-19T22:22:52.221Z,80.24
2018-10-19T22:25:32.966Z,80.10
2018-10-19T22:28:14.399Z,79.53
2018-10-19T22:30:44.309Z,80.35
2018-10-19T22:33:23.546Z,79.87
2018-10-19T22:35:52.466Z,80.60
2018-10-19T22:38:21.355Z,80.57
2018-10-19T22:40:50.318Z,80.45
2018-10-19T22:43:19.229Z,80.50
2018-10-19T22:46:04.968Z,79.99
2018-10-19T22:48:36.005Z,80.04
2018-10-19T22:51:04.990Z,80.14
2018-10-19T22:53:36.041Z,80.15
2018-10-19T22:56:04.981Z,80.29
2018-10-19T22:58:40.611Z,80.42
2018-10-19T23:01:13.892Z,80.15
2018-10-19T23:03:43.281Z,80.74
2018-10-19T23:06:12.196Z,80.42
2018-10-19T23:11:42.475Z,80.29
2018-10-19T23:14:11.391Z,80.21
2018-10-19T23:16:40.284Z,80.59
2018-10-19T23:19:15.133Z,80.38
2018-10-19T23:21:44.351Z,80.63
2018-10-19T23:24:13.336Z,80.53
2018-10-19T23:26:42.391Z,81.05
2018-10-19T23:29:11.653Z,80.63
2018-10-19T23:31:40.754Z,80.45
2018-10-19T23:34:09.780Z,80.25
2018-10-19T23:36:38.943Z,80.97
2018-10-19T23:39:09.687Z,81.00
2018-10-19T23:41:42.471Z,80.88
2018-10-19T23:44:12.340Z,80.80
2018-10-19T23:46:46.060Z,80.85
2018-10-19T23:49:14.958Z,80.88
2018-10-19T23:51:45.900Z,81.04
2018-10-19T23:54:21.382Z,81.77
2018-10-19T23:56:50.268Z,81.53
2018-10-19T23:59:19.176Z,81.19
